sensor_id;sensor_type;location;lat;lon;timestamp;P1;durP1;ratioP1;P2;durP2;ratioP2
56051;SDS011;41919;42.648;23.384;2023-04-10T00:01:26;9.10;;;4.45;;
56051;SDS011;41919;42.648;23.384;2023-04-10T00:03:52;5.18;;;3.53;;
56051;SDS011;41919;42.648;23.384;2023-04-10T00:06:17;7.25;;;4.55;;
56051;SDS011;41919;42.648;23.384;2023-04-10T00:08:43;6.00;;;3.95;;
56051;SDS011;41919;42.648;23.384;2023-04-10T00:11:08;5.47;;;3.50;;
56051;SDS011;41919;42.648;23.384;2023-04-10T00:13:33;4.95;;;3.60;;
56051;SDS011;41919;42.648;23.384;2023-04-10T00:15:59;7.15;;;4.10;;
56051;SDS011;41919;42.648;23.384;2023-04-10T00:18:25;4.45;;;2.90;;
56051;SDS011;41919;42.648;23.384;2023-04-10T00:20:50;4.68;;;3.38;;
56051;SDS011;41919;42.648;23.384;2023-04-10T00:23:15;5.15;;;2.97;;
56051;SDS011;41919;42.648;23.384;2023-04-10T00:25:41;3.00;;;2.20;;
56051;SDS011;41919;42.648;23.384;2023-04-10T00:28:06;3.70;;;2.45;;
56051;SDS011;41919;42.648;23.384;2023-04-10T00:30:32;3.40;;;2.40;;
56051;SDS011;41919;42.648;23.384;2023-04-10T00:32:57;2.85;;;2.17;;
56051;SDS011;41919;42.648;23.384;2023-04-10T00:35:22;5.15;;;3.03;;
56051;SDS011;41919;42.648;23.384;2023-04-10T00:37:48;3.53;;;2.30;;
56051;SDS011;41919;42.648;23.384;2023-04-10T00:40:14;3.75;;;2.53;;
56051;SDS011;41919;42.648;23.384;2023-04-10T00:42:40;4.05;;;2.85;;
56051;SDS011;41919;42.648;23.384;2023-04-10T00:45:05;2.58;;;2.10;;
56051;SDS011;41919;42.648;23.384;2023-04-10T00:47:31;3.78;;;2.45;;
56051;SDS011;41919;42.648;23.384;2023-04-10T00:49:56;4.93;;;2.97;;
56051;SDS011;41919;42.648;23.384;2023-04-10T00:52:22;3.15;;;2.58;;
56051;SDS011;41919;42.648;23.384;2023-04-10T00:54:48;4.28;;;2.97;;
56051;SDS011;41919;42.648;23.384;2023-04-10T00:57:14;3.47;;;2.55;;
56051;SDS011;41919;42.648;23.384;2023-04-10T00:59:39;3.88;;;2.83;;
56051;SDS011;41919;42.648;23.384;2023-04-10T01:02:05;3.42;;;2.40;;
56051;SDS011;41919;42.648;23.384;2023-04-10T01:04:31;3.88;;;2.58;;
56051;SDS011;41919;42.648;23.384;2023-04-10T01:07:06;7.80;;;2.78;;
56051;SDS011;41919;42.648;23.384;2023-04-10T01:12:52;5.68;;;2.90;;
56051;SDS011;41919;42.648;23.384;2023-04-10T01:15:41;4.07;;;2.80;;
56051;SDS011;41919;42.648;23.384;2023-04-10T01:20:43;5.10;;;3.38;;
56051;SDS011;41919;42.648;23.384;2023-04-10T01:31:18;7.53;;;3.60;;
56051;SDS011;41919;42.648;23.384;2023-04-10T01:33:50;4.22;;;3.28;;
56051;SDS011;41919;42.648;23.384;2023-04-10T01:36:21;4.63;;;3.28;;
56051;SDS011;41919;42.648;23.384;2023-04-10T01:38:55;5.68;;;3.13;;
56051;SDS011;41919;42.648;23.384;2023-04-10T01:41:22;5.38;;;3.35;;
56051;SDS011;41919;42.648;23.384;2023-04-10T01:43:50;4.40;;;3.08;;
56051;SDS011;41919;42.648;23.384;2023-04-10T01:46:20;3.75;;;2.85;;
56051;SDS011;41919;42.648;23.384;2023-04-10T01:48:48;3.83;;;2.78;;
56051;SDS011;41919;42.648;23.384;2023-04-10T01:51:15;3.80;;;2.80;;
56051;SDS011;41919;42.648;23.384;2023-04-10T01:53:42;2.95;;;2.53;;
56051;SDS011;41919;42.648;23.384;2023-04-10T01:56:09;6.25;;;2.88;;
56051;SDS011;41919;42.648;23.384;2023-04-10T01:58:35;4.18;;;3.00;;
56051;SDS011;41919;42.648;23.384;2023-04-10T02:01:00;4.80;;;3.08;;
56051;SDS011;41919;42.648;23.384;2023-04-10T02:03:26;3.88;;;3.00;;
56051;SDS011;41919;42.648;23.384;2023-04-10T02:06:07;4.80;;;3.20;;
56051;SDS011;41919;42.648;23.384;2023-04-10T02:08:57;5.47;;;2.88;;
56051;SDS011;41919;42.648;23.384;2023-04-10T02:14:25;4.80;;;3.05;;
56051;SDS011;41919;42.648;23.384;2023-04-10T02:16:54;5.32;;;3.58;;
56051;SDS011;41919;42.648;23.384;2023-04-10T02:19:21;5.50;;;3.65;;
56051;SDS011;41919;42.648;23.384;2023-04-10T02:21:49;6.00;;;3.95;;
56051;SDS011;41919;42.648;23.384;2023-04-10T02:24:16;5.78;;;3.47;;
56051;SDS011;41919;42.648;23.384;2023-04-10T02:26:46;5.15;;;3.38;;
56051;SDS011;41919;42.648;23.384;2023-04-10T02:29:13;5.97;;;4.10;;
56051;SDS011;41919;42.648;23.384;2023-04-10T02:31:39;6.75;;;3.70;;
56051;SDS011;41919;42.648;23.384;2023-04-10T02:34:05;6.20;;;3.88;;
56051;SDS011;41919;42.648;23.384;2023-04-10T02:36:31;5.45;;;3.65;;
56051;SDS011;41919;42.648;23.384;2023-04-10T02:38:57;3.78;;;3.17;;
56051;SDS011;41919;42.648;23.384;2023-04-10T02:41:23;4.75;;;3.58;;
56051;SDS011;41919;42.648;23.384;2023-04-10T02:43:48;5.20;;;3.53;;
56051;SDS011;41919;42.648;23.384;2023-04-10T02:46:13;5.85;;;3.80;;
56051;SDS011;41919;42.648;23.384;2023-04-10T02:48:39;5.60;;;3.95;;
56051;SDS011;41919;42.648;23.384;2023-04-10T02:51:04;6.50;;;3.55;;
56051;SDS011;41919;42.648;23.384;2023-04-10T02:53:31;6.40;;;3.80;;
56051;SDS011;41919;42.648;23.384;2023-04-10T02:55:57;7.53;;;4.88;;
56051;SDS011;41919;42.648;23.384;2023-04-10T02:58:23;6.80;;;4.30;;
56051;SDS011;41919;42.648;23.384;2023-04-10T03:00:48;7.95;;;4.57;;
56051;SDS011;41919;42.648;23.384;2023-04-10T03:03:15;7.15;;;4.53;;
56051;SDS011;41919;42.648;23.384;2023-04-10T03:05:42;7.82;;;3.90;;
56051;SDS011;41919;42.648;23.384;2023-04-10T03:08:08;8.18;;;4.15;;
56051;SDS011;41919;42.648;23.384;2023-04-10T03:10:33;7.72;;;4.07;;
56051;SDS011;41919;42.648;23.384;2023-04-10T03:12:58;7.70;;;4.57;;
56051;SDS011;41919;42.648;23.384;2023-04-10T03:15:24;6.45;;;4.13;;
56051;SDS011;41919;42.648;23.384;2023-04-10T03:17:49;5.10;;;3.63;;
56051;SDS011;41919;42.648;23.384;2023-04-10T03:20:15;5.35;;;3.45;;
56051;SDS011;41919;42.648;23.384;2023-04-10T03:22:41;4.57;;;3.75;;
56051;SDS011;41919;42.648;23.384;2023-04-10T03:25:06;5.68;;;3.65;;
56051;SDS011;41919;42.648;23.384;2023-04-10T03:27:32;4.70;;;3.20;;
56051;SDS011;41919;42.648;23.384;2023-04-10T03:29:59;4.82;;;3.20;;
56051;SDS011;41919;42.648;23.384;2023-04-10T03:32:25;5.50;;;3.45;;
56051;SDS011;41919;42.648;23.384;2023-04-10T03:34:52;5.05;;;3.38;;
56051;SDS011;41919;42.648;23.384;2023-04-10T03:37:17;4.85;;;3.50;;
56051;SDS011;41919;42.648;23.384;2023-04-10T03:39:43;5.35;;;3.47;;
56051;SDS011;41919;42.648;23.384;2023-04-10T03:42:09;5.90;;;3.65;;
56051;SDS011;41919;42.648;23.384;2023-04-10T03:44:35;5.90;;;3.80;;
56051;SDS011;41919;42.648;23.384;2023-04-10T03:47:01;5.38;;;3.72;;
56051;SDS011;41919;42.648;23.384;2023-04-10T03:49:27;6.40;;;3.65;;
56051;SDS011;41919;42.648;23.384;2023-04-10T03:51:52;6.00;;;3.90;;
56051;SDS011;41919;42.648;23.384;2023-04-10T03:54:18;5.22;;;3.58;;
56051;SDS011;41919;42.648;23.384;2023-04-10T03:56:43;7.50;;;3.50;;
56051;SDS011;41919;42.648;23.384;2023-04-10T03:59:09;7.90;;;4.90;;
56051;SDS011;41919;42.648;23.384;2023-04-10T04:01:34;10.88;;;5.82;;
56051;SDS011;41919;42.648;23.384;2023-04-10T04:04:00;7.35;;;4.20;;
56051;SDS011;41919;42.648;23.384;2023-04-10T04:06:25;7.28;;;4.47;;
56051;SDS011;41919;42.648;23.384;2023-04-10T04:08:51;9.45;;;5.40;;
56051;SDS011;41919;42.648;23.384;2023-04-10T04:11:17;7.93;;;4.57;;
56051;SDS011;41919;42.648;23.384;2023-04-10T04:13:42;10.20;;;4.70;;
56051;SDS011;41919;42.648;23.384;2023-04-10T04:16:08;10.55;;;5.70;;
56051;SDS011;41919;42.648;23.384;2023-04-10T04:18:35;15.80;;;5.68;;
56051;SDS011;41919;42.648;23.384;2023-04-10T04:21:00;10.15;;;5.25;;
56051;SDS011;41919;42.648;23.384;2023-04-10T04:23:25;8.52;;;5.00;;
56051;SDS011;41919;42.648;23.384;2023-04-10T04:25:51;8.95;;;5.90;;
56051;SDS011;41919;42.648;23.384;2023-04-10T04:28:18;12.23;;;5.90;;
56051;SDS011;41919;42.648;23.384;2023-04-10T04:30:44;10.77;;;5.75;;
56051;SDS011;41919;42.648;23.384;2023-04-10T04:33:09;11.90;;;6.07;;
56051;SDS011;41919;42.648;23.384;2023-04-10T04:35:35;11.05;;;5.88;;
56051;SDS011;41919;42.648;23.384;2023-04-10T04:38:00;16.05;;;6.82;;
56051;SDS011;41919;42.648;23.384;2023-04-10T04:40:26;14.30;;;6.18;;
56051;SDS011;41919;42.648;23.384;2023-04-10T04:42:51;32.05;;;14.73;;
56051;SDS011;41919;42.648;23.384;2023-04-10T04:45:16;7.60;;;5.32;;
56051;SDS011;41919;42.648;23.384;2023-04-10T04:47:42;7.97;;;5.05;;
56051;SDS011;41919;42.648;23.384;2023-04-10T04:50:08;8.18;;;5.20;;
56051;SDS011;41919;42.648;23.384;2023-04-10T04:52:33;8.65;;;5.65;;
56051;SDS011;41919;42.648;23.384;2023-04-10T04:54:59;16.80;;;9.20;;
56051;SDS011;41919;42.648;23.384;2023-04-10T04:57:25;11.85;;;6.53;;
56051;SDS011;41919;42.648;23.384;2023-04-10T04:59:50;10.07;;;5.95;;
56051;SDS011;41919;42.648;23.384;2023-04-10T05:02:16;11.00;;;6.35;;
56051;SDS011;41919;42.648;23.384;2023-04-10T05:04:42;8.13;;;5.40;;
56051;SDS011;41919;42.648;23.384;2023-04-10T05:07:08;11.93;;;5.70;;
56051;SDS011;41919;42.648;23.384;2023-04-10T05:09:34;8.25;;;5.18;;
56051;SDS011;41919;42.648;23.384;2023-04-10T05:12:00;8.63;;;5.45;;
56051;SDS011;41919;42.648;23.384;2023-04-10T05:14:27;7.25;;;4.78;;
56051;SDS011;41919;42.648;23.384;2023-04-10T05:16:52;9.52;;;4.80;;
56051;SDS011;41919;42.648;23.384;2023-04-10T05:19:18;9.50;;;5.05;;
56051;SDS011;41919;42.648;23.384;2023-04-10T05:21:43;8.90;;;5.13;;
56051;SDS011;41919;42.648;23.384;2023-04-10T05:24:09;8.93;;;4.38;;
56051;SDS011;41919;42.648;23.384;2023-04-10T05:26:34;8.82;;;4.78;;
56051;SDS011;41919;42.648;23.384;2023-04-10T05:29:00;7.97;;;4.18;;
56051;SDS011;41919;42.648;23.384;2023-04-10T05:31:25;10.27;;;5.63;;
56051;SDS011;41919;42.648;23.384;2023-04-10T05:33:50;8.65;;;4.78;;
56051;SDS011;41919;42.648;23.384;2023-04-10T05:36:16;6.75;;;5.07;;
56051;SDS011;41919;42.648;23.384;2023-04-10T05:38:42;8.18;;;5.20;;
56051;SDS011;41919;42.648;23.384;2023-04-10T05:41:08;9.90;;;4.82;;
56051;SDS011;41919;42.648;23.384;2023-04-10T05:43:33;5.40;;;4.38;;
56051;SDS011;41919;42.648;23.384;2023-04-10T05:45:58;8.05;;;4.43;;
56051;SDS011;41919;42.648;23.384;2023-04-10T05:48:24;5.85;;;4.07;;
56051;SDS011;41919;42.648;23.384;2023-04-10T05:50:50;8.70;;;4.43;;
56051;SDS011;41919;42.648;23.384;2023-04-10T05:53:17;9.13;;;4.50;;
56051;SDS011;41919;42.648;23.384;2023-04-10T05:55:43;10.00;;;4.93;;
56051;SDS011;41919;42.648;23.384;2023-04-10T05:58:09;9.63;;;4.35;;
56051;SDS011;41919;42.648;23.384;2023-04-10T06:00:34;7.40;;;4.28;;
56051;SDS011;41919;42.648;23.384;2023-04-10T06:03:01;5.22;;;4.22;;
56051;SDS011;41919;42.648;23.384;2023-04-10T06:05:27;6.20;;;3.83;;
56051;SDS011;41919;42.648;23.384;2023-04-10T06:07:52;5.15;;;4.40;;
56051;SDS011;41919;42.648;23.384;2023-04-10T06:10:18;6.93;;;4.18;;
56051;SDS011;41919;42.648;23.384;2023-04-10T06:12:43;6.70;;;4.60;;
56051;SDS011;41919;42.648;23.384;2023-04-10T06:15:09;7.00;;;4.35;;
56051;SDS011;41919;42.648;23.384;2023-04-10T06:17:40;5.43;;;4.38;;
56051;SDS011;41919;42.648;23.384;2023-04-10T06:20:07;6.45;;;4.43;;
56051;SDS011;41919;42.648;23.384;2023-04-10T06:22:33;6.57;;;4.65;;
56051;SDS011;41919;42.648;23.384;2023-04-10T06:24:58;7.47;;;5.10;;
56051;SDS011;41919;42.648;23.384;2023-04-10T06:27:23;9.00;;;6.13;;
56051;SDS011;41919;42.648;23.384;2023-04-10T06:29:49;8.40;;;5.07;;
56051;SDS011;41919;42.648;23.384;2023-04-10T06:32:14;8.60;;;5.47;;
56051;SDS011;41919;42.648;23.384;2023-04-10T06:34:40;8.90;;;5.45;;
56051;SDS011;41919;42.648;23.384;2023-04-10T06:37:05;7.07;;;5.10;;
56051;SDS011;41919;42.648;23.384;2023-04-10T06:39:31;9.63;;;5.20;;
56051;SDS011;41919;42.648;23.384;2023-04-10T06:41:56;8.82;;;5.78;;
56051;SDS011;41919;42.648;23.384;2023-04-10T06:44:22;8.23;;;5.40;;
56051;SDS011;41919;42.648;23.384;2023-04-10T06:46:47;8.98;;;5.65;;
56051;SDS011;41919;42.648;23.384;2023-04-10T06:49:13;7.30;;;5.00;;
56051;SDS011;41919;42.648;23.384;2023-04-10T06:51:38;8.40;;;5.80;;
56051;SDS011;41919;42.648;23.384;2023-04-10T06:54:03;8.10;;;5.22;;
56051;SDS011;41919;42.648;23.384;2023-04-10T06:56:29;6.60;;;5.03;;
56051;SDS011;41919;42.648;23.384;2023-04-10T06:58:54;12.52;;;6.13;;
56051;SDS011;41919;42.648;23.384;2023-04-10T07:01:20;9.25;;;5.30;;
56051;SDS011;41919;42.648;23.384;2023-04-10T07:03:45;7.32;;;4.97;;
56051;SDS011;41919;42.648;23.384;2023-04-10T07:06:11;10.05;;;6.57;;
56051;SDS011;41919;42.648;23.384;2023-04-10T07:08:37;8.65;;;6.22;;
56051;SDS011;41919;42.648;23.384;2023-04-10T07:11:02;10.70;;;6.05;;
56051;SDS011;41919;42.648;23.384;2023-04-10T07:13:28;10.07;;;6.25;;
56051;SDS011;41919;42.648;23.384;2023-04-10T07:15:53;12.15;;;6.90;;
56051;SDS011;41919;42.648;23.384;2023-04-10T07:18:18;11.18;;;6.50;;
56051;SDS011;41919;42.648;23.384;2023-04-10T07:20:44;9.35;;;6.05;;
56051;SDS011;41919;42.648;23.384;2023-04-10T07:23:09;9.38;;;6.03;;
56051;SDS011;41919;42.648;23.384;2023-04-10T07:25:35;8.90;;;5.82;;
56051;SDS011;41919;42.648;23.384;2023-04-10T07:28:00;8.80;;;5.93;;
56051;SDS011;41919;42.648;23.384;2023-04-10T07:30:25;11.38;;;6.75;;
56051;SDS011;41919;42.648;23.384;2023-04-10T07:32:51;10.32;;;6.28;;
56051;SDS011;41919;42.648;23.384;2023-04-10T07:35:16;11.18;;;6.60;;
56051;SDS011;41919;42.648;23.384;2023-04-10T07:37:42;11.35;;;6.75;;
56051;SDS011;41919;42.648;23.384;2023-04-10T07:40:08;9.98;;;6.55;;
56051;SDS011;41919;42.648;23.384;2023-04-10T07:42:34;9.52;;;6.13;;
56051;SDS011;41919;42.648;23.384;2023-04-10T07:45:00;9.75;;;6.32;;
56051;SDS011;41919;42.648;23.384;2023-04-10T07:47:25;11.32;;;6.82;;
56051;SDS011;41919;42.648;23.384;2023-04-10T07:49:51;11.23;;;6.82;;
56051;SDS011;41919;42.648;23.384;2023-04-10T07:52:16;11.80;;;7.18;;
56051;SDS011;41919;42.648;23.384;2023-04-10T07:54:42;12.68;;;7.22;;
56051;SDS011;41919;42.648;23.384;2023-04-10T07:57:07;10.63;;;6.72;;
56051;SDS011;41919;42.648;23.384;2023-04-10T07:59:33;11.48;;;6.38;;
56051;SDS011;41919;42.648;23.384;2023-04-10T08:01:58;10.40;;;6.47;;
56051;SDS011;41919;42.648;23.384;2023-04-10T08:04:24;10.38;;;6.57;;
56051;SDS011;41919;42.648;23.384;2023-04-10T08:06:49;11.52;;;7.20;;
56051;SDS011;41919;42.648;23.384;2023-04-10T08:09:15;11.68;;;7.30;;
56051;SDS011;41919;42.648;23.384;2023-04-10T08:11:40;11.35;;;7.38;;
56051;SDS011;41919;42.648;23.384;2023-04-10T08:14:06;12.68;;;7.07;;
56051;SDS011;41919;42.648;23.384;2023-04-10T08:16:32;11.95;;;6.85;;
56051;SDS011;41919;42.648;23.384;2023-04-10T08:18:59;12.52;;;7.47;;
56051;SDS011;41919;42.648;23.384;2023-04-10T08:21:26;12.38;;;7.15;;
56051;SDS011;41919;42.648;23.384;2023-04-10T08:23:53;11.65;;;6.97;;
56051;SDS011;41919;42.648;23.384;2023-04-10T08:26:20;9.10;;;6.30;;
56051;SDS011;41919;42.648;23.384;2023-04-10T08:28:50;11.25;;;6.82;;
56051;SDS011;41919;42.648;23.384;2023-04-10T08:31:19;10.25;;;6.45;;
56051;SDS011;41919;42.648;23.384;2023-04-10T08:33:46;14.13;;;7.65;;
56051;SDS011;41919;42.648;23.384;2023-04-10T08:36:12;13.60;;;7.65;;
56051;SDS011;41919;42.648;23.384;2023-04-10T08:38:42;11.50;;;7.07;;
56051;SDS011;41919;42.648;23.384;2023-04-10T08:41:09;12.57;;;6.97;;
56051;SDS011;41919;42.648;23.384;2023-04-10T08:43:35;10.40;;;6.75;;
56051;SDS011;41919;42.648;23.384;2023-04-10T08:46:01;10.98;;;6.47;;
56051;SDS011;41919;42.648;23.384;2023-04-10T08:48:30;11.48;;;6.82;;
56051;SDS011;41919;42.648;23.384;2023-04-10T08:51:00;14.07;;;6.68;;
56051;SDS011;41919;42.648;23.384;2023-04-10T08:53:29;10.48;;;6.90;;
56051;SDS011;41919;42.648;23.384;2023-04-10T08:55:56;13.20;;;7.20;;
56051;SDS011;41919;42.648;23.384;2023-04-10T08:58:23;10.43;;;6.45;;
56051;SDS011;41919;42.648;23.384;2023-04-10T09:00:48;10.18;;;6.88;;
56051;SDS011;41919;42.648;23.384;2023-04-10T09:03:15;10.88;;;6.80;;
56051;SDS011;41919;42.648;23.384;2023-04-10T09:05:42;10.45;;;6.85;;
56051;SDS011;41919;42.648;23.384;2023-04-10T09:08:07;12.85;;;7.28;;
56051;SDS011;41919;42.648;23.384;2023-04-10T09:10:36;19.45;;;9.38;;
56051;SDS011;41919;42.648;23.384;2023-04-10T09:13:01;11.88;;;7.40;;
56051;SDS011;41919;42.648;23.384;2023-04-10T09:15:27;9.55;;;6.38;;
56051;SDS011;41919;42.648;23.384;2023-04-10T09:17:56;9.18;;;5.90;;
56051;SDS011;41919;42.648;23.384;2023-04-10T09:20:24;11.68;;;7.28;;
56051;SDS011;41919;42.648;23.384;2023-04-10T09:22:50;10.50;;;6.85;;
56051;SDS011;41919;42.648;23.384;2023-04-10T09:25:35;9.13;;;5.35;;
56051;SDS011;41919;42.648;23.384;2023-04-10T09:28:06;10.70;;;6.57;;
56051;SDS011;41919;42.648;23.384;2023-04-10T09:30:34;10.15;;;6.30;;
56051;SDS011;41919;42.648;23.384;2023-04-10T09:35:47;9.65;;;5.85;;
56051;SDS011;41919;42.648;23.384;2023-04-10T09:38:17;8.88;;;6.13;;
56051;SDS011;41919;42.648;23.384;2023-04-10T09:40:44;12.52;;;7.40;;
56051;SDS011;41919;42.648;23.384;2023-04-10T09:43:17;10.55;;;6.53;;
56051;SDS011;41919;42.648;23.384;2023-04-10T09:45:51;10.50;;;6.90;;
56051;SDS011;41919;42.648;23.384;2023-04-10T09:48:18;12.43;;;7.13;;
56051;SDS011;41919;42.648;23.384;2023-04-10T09:50:44;9.07;;;5.95;;
56051;SDS011;41919;42.648;23.384;2023-04-10T09:53:11;10.00;;;6.78;;
56051;SDS011;41919;42.648;23.384;2023-04-10T09:55:38;8.85;;;6.07;;
56051;SDS011;41919;42.648;23.384;2023-04-10T09:58:04;8.88;;;6.15;;
56051;SDS011;41919;42.648;23.384;2023-04-10T10:00:40;8.38;;;5.30;;
56051;SDS011;41919;42.648;23.384;2023-04-10T10:03:08;7.70;;;5.32;;
56051;SDS011;41919;42.648;23.384;2023-04-10T10:05:36;7.03;;;5.03;;
56051;SDS011;41919;42.648;23.384;2023-04-10T10:08:04;6.57;;;4.90;;
56051;SDS011;41919;42.648;23.384;2023-04-10T10:10:30;10.25;;;5.55;;
56051;SDS011;41919;42.648;23.384;2023-04-10T10:12:57;7.43;;;5.28;;
56051;SDS011;41919;42.648;23.384;2023-04-10T10:15:29;7.72;;;5.10;;
56051;SDS011;41919;42.648;23.384;2023-04-10T10:20:29;7.20;;;5.00;;
56051;SDS011;41919;42.648;23.384;2023-04-10T10:22:57;7.97;;;5.30;;
56051;SDS011;41919;42.648;23.384;2023-04-10T10:25:23;7.60;;;5.30;;
56051;SDS011;41919;42.648;23.384;2023-04-10T10:27:50;6.78;;;4.78;;
56051;SDS011;41919;42.648;23.384;2023-04-10T10:30:18;7.22;;;5.18;;
56051;SDS011;41919;42.648;23.384;2023-04-10T10:32:45;7.25;;;5.15;;
56051;SDS011;41919;42.648;23.384;2023-04-10T10:35:11;7.72;;;5.93;;
56051;SDS011;41919;42.648;23.384;2023-04-10T10:37:37;8.13;;;5.38;;
56051;SDS011;41919;42.648;23.384;2023-04-10T10:42:57;8.48;;;5.82;;
56051;SDS011;41919;42.648;23.384;2023-04-10T10:45:51;10.07;;;5.85;;
56051;SDS011;41919;42.648;23.384;2023-04-10T10:48:22;7.35;;;5.32;;
56051;SDS011;41919;42.648;23.384;2023-04-10T10:53:37;9.32;;;6.05;;
56051;SDS011;41919;42.648;23.384;2023-04-10T10:58:50;8.20;;;5.75;;
56051;SDS011;41919;42.648;23.384;2023-04-10T11:01:23;6.85;;;5.22;;
56051;SDS011;41919;42.648;23.384;2023-04-10T11:03:50;8.38;;;5.60;;
56051;SDS011;41919;42.648;23.384;2023-04-10T11:06:16;6.90;;;5.10;;
56051;SDS011;41919;42.648;23.384;2023-04-10T11:16:13;8.00;;;5.50;;
56051;SDS011;41919;42.648;23.384;2023-04-10T11:31:45;6.10;;;5.07;;
56051;SDS011;41919;42.648;23.384;2023-04-10T11:34:12;7.75;;;5.25;;
56051;SDS011;41919;42.648;23.384;2023-04-10T11:36:40;8.02;;;5.82;;
56051;SDS011;41919;42.648;23.384;2023-04-10T11:41:45;14.90;;;6.03;;
56051;SDS011;41919;42.648;23.384;2023-04-10T11:44:16;6.38;;;4.63;;
56051;SDS011;41919;42.648;23.384;2023-04-10T11:46:45;6.20;;;4.85;;
56051;SDS011;41919;42.648;23.384;2023-04-10T11:49:11;8.23;;;6.10;;
56051;SDS011;41919;42.648;23.384;2023-04-10T11:51:43;8.50;;;5.38;;
56051;SDS011;41919;42.648;23.384;2023-04-10T11:54:23;7.68;;;4.90;;
56051;SDS011;41919;42.648;23.384;2023-04-10T11:59:26;6.18;;;4.95;;
56051;SDS011;41919;42.648;23.384;2023-04-10T12:01:53;6.20;;;4.72;;
56051;SDS011;41919;42.648;23.384;2023-04-10T12:04:39;9.25;;;5.90;;
56051;SDS011;41919;42.648;23.384;2023-04-10T12:07:05;7.18;;;5.32;;
56051;SDS011;41919;42.648;23.384;2023-04-10T12:09:31;8.43;;;5.65;;
56051;SDS011;41919;42.648;23.384;2023-04-10T12:11:58;8.50;;;5.65;;
56051;SDS011;41919;42.648;23.384;2023-04-10T12:14:30;8.48;;;6.20;;
56051;SDS011;41919;42.648;23.384;2023-04-10T12:16:56;9.55;;;6.35;;
56051;SDS011;41919;42.648;23.384;2023-04-10T12:19:23;7.82;;;5.63;;
56051;SDS011;41919;42.648;23.384;2023-04-10T12:21:49;10.07;;;6.30;;
56051;SDS011;41919;42.648;23.384;2023-04-10T12:27:07;9.27;;;5.70;;
56051;SDS011;41919;42.648;23.384;2023-04-10T12:29:39;7.53;;;5.38;;
56051;SDS011;41919;42.648;23.384;2023-04-10T12:32:08;8.10;;;5.25;;
56051;SDS011;41919;42.648;23.384;2023-04-10T12:34:35;8.90;;;6.60;;
56051;SDS011;41919;42.648;23.384;2023-04-10T12:37:01;8.30;;;5.18;;
56051;SDS011;41919;42.648;23.384;2023-04-10T12:39:27;5.00;;;3.72;;
56051;SDS011;41919;42.648;23.384;2023-04-10T12:41:52;8.43;;;4.10;;
56051;SDS011;41919;42.648;23.384;2023-04-10T12:44:18;5.20;;;4.00;;
56051;SDS011;41919;42.648;23.384;2023-04-10T12:46:44;4.63;;;3.10;;
56051;SDS011;41919;42.648;23.384;2023-04-10T12:49:14;4.30;;;3.20;;
56051;SDS011;41919;42.648;23.384;2023-04-10T12:51:47;6.35;;;3.60;;
56051;SDS011;41919;42.648;23.384;2023-04-10T12:54:30;6.47;;;3.90;;
56051;SDS011;41919;42.648;23.384;2023-04-10T12:56:56;6.72;;;4.57;;
56051;SDS011;41919;42.648;23.384;2023-04-10T12:59:22;8.18;;;4.38;;
56051;SDS011;41919;42.648;23.384;2023-04-10T13:01:48;6.82;;;4.60;;
56051;SDS011;41919;42.648;23.384;2023-04-10T13:04:13;7.05;;;5.03;;
56051;SDS011;41919;42.648;23.384;2023-04-10T13:06:42;7.43;;;4.85;;
56051;SDS011;41919;42.648;23.384;2023-04-10T13:09:12;6.70;;;4.75;;
56051;SDS011;41919;42.648;23.384;2023-04-10T13:11:38;7.72;;;5.50;;
56051;SDS011;41919;42.648;23.384;2023-04-10T13:14:04;8.15;;;5.45;;
56051;SDS011;41919;42.648;23.384;2023-04-10T13:16:29;8.35;;;5.70;;
56051;SDS011;41919;42.648;23.384;2023-04-10T13:18:55;9.27;;;6.10;;
56051;SDS011;41919;42.648;23.384;2023-04-10T13:21:20;7.57;;;5.60;;
56051;SDS011;41919;42.648;23.384;2023-04-10T13:23:50;9.55;;;6.53;;
56051;SDS011;41919;42.648;23.384;2023-04-10T13:26:16;8.80;;;5.10;;
56051;SDS011;41919;42.648;23.384;2023-04-10T13:28:41;9.02;;;5.57;;
56051;SDS011;41919;42.648;23.384;2023-04-10T13:31:06;7.88;;;4.72;;
56051;SDS011;41919;42.648;23.384;2023-04-10T13:33:32;6.35;;;4.75;;
56051;SDS011;41919;42.648;23.384;2023-04-10T13:35:57;9.23;;;5.50;;
56051;SDS011;41919;42.648;23.384;2023-04-10T13:38:23;7.97;;;5.13;;
56051;SDS011;41919;42.648;23.384;2023-04-10T13:40:48;8.32;;;5.07;;
56051;SDS011;41919;42.648;23.384;2023-04-10T13:43:13;8.30;;;5.70;;
56051;SDS011;41919;42.648;23.384;2023-04-10T13:45:39;6.78;;;5.03;;
56051;SDS011;41919;42.648;23.384;2023-04-10T13:48:05;6.63;;;4.85;;
56051;SDS011;41919;42.648;23.384;2023-04-10T13:50:32;8.63;;;5.95;;
56051;SDS011;41919;42.648;23.384;2023-04-10T13:52:57;8.52;;;5.70;;
56051;SDS011;41919;42.648;23.384;2023-04-10T13:55:23;9.02;;;5.57;;
56051;SDS011;41919;42.648;23.384;2023-04-10T13:57:49;7.95;;;6.22;;
56051;SDS011;41919;42.648;23.384;2023-04-10T14:00:14;9.00;;;5.88;;
56051;SDS011;41919;42.648;23.384;2023-04-10T14:02:40;8.48;;;6.10;;
56051;SDS011;41919;42.648;23.384;2023-04-10T14:05:05;8.38;;;6.55;;
56051;SDS011;41919;42.648;23.384;2023-04-10T14:07:31;8.85;;;6.90;;
56051;SDS011;41919;42.648;23.384;2023-04-10T14:09:57;10.15;;;6.65;;
56051;SDS011;41919;42.648;23.384;2023-04-10T14:12:23;10.38;;;6.22;;
56051;SDS011;41919;42.648;23.384;2023-04-10T14:14:49;9.00;;;6.38;;
56051;SDS011;41919;42.648;23.384;2023-04-10T14:17:14;9.35;;;6.88;;
56051;SDS011;41919;42.648;23.384;2023-04-10T14:19:40;9.07;;;6.47;;
56051;SDS011;41919;42.648;23.384;2023-04-10T14:22:06;10.05;;;7.13;;
56051;SDS011;41919;42.648;23.384;2023-04-10T14:24:31;9.73;;;4.35;;
56051;SDS011;41919;42.648;23.384;2023-04-10T14:26:57;4.35;;;3.38;;
56051;SDS011;41919;42.648;23.384;2023-04-10T14:29:25;4.72;;;3.45;;
56051;SDS011;41919;42.648;23.384;2023-04-10T14:31:51;4.93;;;3.55;;
56051;SDS011;41919;42.648;23.384;2023-04-10T14:34:17;5.85;;;4.07;;
56051;SDS011;41919;42.648;23.384;2023-04-10T14:36:42;6.10;;;3.72;;
56051;SDS011;41919;42.648;23.384;2023-04-10T14:39:08;5.85;;;4.20;;
56051;SDS011;41919;42.648;23.384;2023-04-10T14:41:33;5.88;;;3.88;;
56051;SDS011;41919;42.648;23.384;2023-04-10T14:43:59;6.13;;;4.68;;
56051;SDS011;41919;42.648;23.384;2023-04-10T14:46:24;7.85;;;4.57;;
56051;SDS011;41919;42.648;23.384;2023-04-10T14:48:50;6.43;;;4.57;;
56051;SDS011;41919;42.648;23.384;2023-04-10T14:51:15;6.75;;;4.10;;
56051;SDS011;41919;42.648;23.384;2023-04-10T14:53:41;6.28;;;4.07;;
56051;SDS011;41919;42.648;23.384;2023-04-10T14:56:12;5.97;;;4.40;;
56051;SDS011;41919;42.648;23.384;2023-04-10T14:58:39;5.22;;;3.97;;
56051;SDS011;41919;42.648;23.384;2023-04-10T15:01:08;7.32;;;4.43;;
56051;SDS011;41919;42.648;23.384;2023-04-10T15:03:34;6.75;;;4.30;;
56051;SDS011;41919;42.648;23.384;2023-04-10T15:05:59;5.55;;;4.00;;
56051;SDS011;41919;42.648;23.384;2023-04-10T15:08:25;6.10;;;4.18;;
56051;SDS011;41919;42.648;23.384;2023-04-10T15:10:51;6.75;;;4.90;;
56051;SDS011;41919;42.648;23.384;2023-04-10T15:13:20;5.63;;;4.70;;
56051;SDS011;41919;42.648;23.384;2023-04-10T15:15:46;6.90;;;4.68;;
56051;SDS011;41919;42.648;23.384;2023-04-10T15:18:15;7.55;;;4.85;;
56051;SDS011;41919;42.648;23.384;2023-04-10T15:20:40;8.15;;;5.20;;
56051;SDS011;41919;42.648;23.384;2023-04-10T15:23:06;9.13;;;5.82;;
56051;SDS011;41919;42.648;23.384;2023-04-10T15:25:32;7.72;;;5.20;;
56051;SDS011;41919;42.648;23.384;2023-04-10T15:27:58;7.25;;;4.88;;